Time;durP1;ratioP1;P1;durP2;ratioP2;P2;SDS_P1;SDS_P2;PMS_P1;PMS_P2;Temp;Humidity;BMP_temperature;BMP_pressure;BME280_temperature;BME280_humidity;BME280_pressure;Samples;Min_cycle;Max_cycle;Signal;HPM_P1;HPM_P2
2021/10/29 00:01:10;;;;;;;4.37;4.07;;;20.10;99.90;;;;;;5065562;28;20446;-70
2021/10/29 00:03:41;;;;;;;5.30;4.90;;;20.10;99.90;;;;;;5053537;28;20526;-69
2021/10/29 00:06:14;;;;;;;4.60;4.20;;;20.10;99.90;;;;;;5061011;28;20450;-71
2021/10/29 00:08:45;;;;;;;4.50;4.20;;;20.20;99.90;;;;;;5061274;28;20906;-71
2021/10/29 00:11:16;;;;;;;5.03;4.63;;;20.10;99.90;;;;;;5051974;28;20482;-70
2021/10/29 00:13:46;;;;;;;4.60;4.20;;;20.20;99.90;;;;;;5059997;28;20477;-69
2021/10/29 00:16:17;;;;;;;5.40;5.00;;;20.10;99.90;;;;;;5038079;28;20867;-69
2021/10/29 00:18:49;;;;;;;5.10;4.80;;;20.00;99.90;;;;;;5052678;28;20529;-70
2021/10/29 00:21:21;;;;;;;6.10;4.80;;;20.00;99.90;;;;;;5068844;28;20426;-70
2021/10/29 00:23:56;;;;;;;4.67;4.37;;;19.90;99.90;;;;;;5055227;28;20470;-69
2021/10/29 00:26:27;;;;;;;5.10;4.70;;;19.90;99.90;;;;;;5060219;28;20513;-69
2021/10/29 00:28:58;;;;;;;4.60;4.30;;;19.90;99.90;;;;;;5047283;28;20445;-70
2021/10/29 00:31:28;;;;;;;4.87;4.47;;;19.80;99.90;;;;;;5050803;28;20452;-69
2021/10/29 00:34:02;;;;;;;4.97;4.53;;;19.80;99.90;;;;;;5062627;28;20437;-71
2021/10/29 00:36:35;;;;;;;5.00;4.60;;;19.80;99.90;;;;;;5063474;28;20456;-69
2021/10/29 00:39:07;;;;;;;5.10;4.60;;;19.70;99.90;;;;;;5064407;28;20471;-69
2021/10/29 00:41:38;;;;;;;5.30;4.80;;;19.70;99.90;;;;;;5049660;28;20491;-70
2021/10/29 00:44:09;;;;;;;5.13;4.73;;;19.60;99.90;;;;;;5072008;28;20464;-70
2021/10/29 00:46:40;;;;;;;5.33;4.27;;;19.60;99.90;;;;;;5057944;28;20644;-71
2021/10/29 00:49:11;;;;;;;3.97;3.77;;;19.50;99.90;;;;;;5051414;28;20470;-70
2021/10/29 00:51:43;;;;;;;4.60;4.30;;;19.50;99.90;;;;;;5057780;28;20457;-69
2021/10/29 00:54:16;;;;;;;4.07;3.77;;;19.50;99.90;;;;;;5058426;28;20474;-71
2021/10/29 00:56:48;;;;;;;5.73;4.03;;;19.50;99.90;;;;;;5053814;28;20455;-69
2021/10/29 00:59:40;;;;;;;5.03;3.90;;;19.40;99.90;;;;;;5041925;28;20613;-74
2021/10/29 01:02:11;;;;;;;4.17;3.87;;;19.40;99.90;;;;;;5025731;28;20538;-69
2021/10/29 01:04:43;;;;;;;3.80;3.50;;;19.40;99.90;;;;;;5042278;28;20554;-73
2021/10/29 01:07:28;;;;;;;4.40;4.10;;;19.50;99.90;;;;;;5025825;28;20492;-73
2021/10/29 01:10:05;;;;;;;4.63;4.23;;;19.40;99.90;;;;;;5041797;28;20475;-70
2021/10/29 01:12:39;;;;;;;4.20;3.90;;;19.40;99.90;;;;;;5034651;28;20479;-70
2021/10/29 01:15:11;;;;;;;3.90;3.33;;;19.40;99.90;;;;;;5031698;28;20465;-70
2021/10/29 01:17:42;;;;;;;4.10;3.80;;;19.30;99.90;;;;;;5034941;28;20447;-70
2021/10/29 01:20:12;;;;;;;3.27;3.00;;;19.30;99.90;;;;;;5038120;28;20594;-70
2021/10/29 01:22:45;;;;;;;3.63;3.33;;;19.30;99.90;;;;;;5032991;28;20468;-71
2021/10/29 01:25:16;;;;;;;3.20;2.93;;;19.30;99.90;;;;;;5033299;28;20823;-74
2021/10/29 01:27:52;;;;;;;3.13;2.83;;;19.30;99.90;;;;;;5035054;28;20517;-69
2021/10/29 01:30:23;;;;;;;3.73;3.23;;;19.20;99.90;;;;;;5033777;28;20443;-67
2021/10/29 01:32:58;;;;;;;2.53;2.27;;;19.30;99.90;;;;;;5020683;28;20480;-67
2021/10/29 01:35:29;;;;;;;3.20;2.90;;;19.30;99.90;;;;;;5034449;28;20447;-67
2021/10/29 01:38:01;;;;;;;2.50;2.30;;;19.20;99.90;;;;;;5031974;28;20465;-67
2021/10/29 01:40:32;;;;;;;2.67;2.47;;;19.20;99.90;;;;;;5042842;28;20530;-67
2021/10/29 01:43:03;;;;;;;2.80;2.60;;;19.20;99.90;;;;;;5041068;28;20472;-67
2021/10/29 01:45:35;;;;;;;2.37;2.27;;;19.20;99.90;;;;;;5034252;28;20461;-67
2021/10/29 01:48:06;;;;;;;2.53;2.23;;;19.20;99.90;;;;;;5040697;28;20551;-67
2021/10/29 01:50:37;;;;;;;2.83;2.30;;;19.20;99.90;;;;;;5049246;28;20475;-67
2021/10/29 01:53:10;;;;;;;2.53;2.43;;;19.20;99.90;;;;;;5049018;28;20567;-66
2021/10/29 01:55:41;;;;;;;2.73;2.20;;;19.10;99.90;;;;;;5023772;28;20955;-67
2021/10/29 01:58:12;;;;;;;2.53;2.43;;;19.10;99.90;;;;;;5030528;28;20465;-67
2021/10/29 02:00:42;;;;;;;2.43;2.33;;;19.10;99.90;;;;;;5044350;28;20826;-67
2021/10/29 02:03:13;;;;;;;2.90;2.70;;;19.10;99.90;;;;;;5034411;28;20546;-67
2021/10/29 02:05:44;;;;;;;2.20;2.00;;;19.10;99.90;;;;;;5048047;28;20445;-67
2021/10/29 02:08:18;;;;;;;2.97;1.97;;;19.00;99.90;;;;;;5048904;28;20484;-67
2021/10/29 02:10:49;;;;;;;2.20;2.00;;;19.10;99.90;;;;;;5050479;28;20452;-67
2021/10/29 02:13:19;;;;;;;2.40;2.20;;;19.10;99.90;;;;;;5040996;28;20469;-67
2021/10/29 02:15:51;;;;;;;2.30;2.00;;;19.00;99.90;;;;;;5041074;28;20920;-66
2021/10/29 02:18:22;;;;;;;2.13;1.93;;;19.00;99.90;;;;;;5031984;28;20945;-67
2021/10/29 02:20:57;;;;;;;1.90;1.80;;;18.90;99.90;;;;;;5036736;28;20555;-67
2021/10/29 02:23:30;;;;;;;1.87;1.77;;;18.90;99.90;;;;;;5031180;28;20457;-67
2021/10/29 02:26:01;;;;;;;2.67;2.27;;;19.00;99.90;;;;;;5013975;28;20457;-67
2021/10/29 02:28:32;;;;;;;2.37;1.87;;;18.90;99.90;;;;;;5039451;28;20482;-67
2021/10/29 02:31:03;;;;;;;2.00;1.90;;;18.90;99.90;;;;;;5036066;28;20470;-67
2021/10/29 02:33:34;;;;;;;2.07;1.97;;;18.90;99.90;;;;;;5029997;28;20484;-62
2021/10/29 02:36:04;;;;;;;3.87;1.97;;;18.90;99.90;;;;;;5043356;28;20814;-63
2021/10/29 02:38:37;;;;;;;2.67;2.47;;;18.90;99.90;;;;;;5025322;28;20464;-64
2021/10/29 02:41:08;;;;;;;1.93;1.83;;;18.90;99.90;;;;;;5029675;28;20526;-63
2021/10/29 02:43:39;;;;;;;2.37;1.83;;;18.90;99.90;;;;;;5033582;28;20838;-63
2021/10/29 02:46:10;;;;;;;3.47;2.50;;;18.90;99.90;;;;;;5025970;28;20464;-63
2021/10/29 02:48:41;;;;;;;2.07;1.97;;;18.90;99.90;;;;;;5038353;28;20493;-64
2021/10/29 02:51:11;;;;;;;2.83;1.80;;;18.90;99.90;;;;;;5028936;28;20462;-65
2021/10/29 02:53:44;;;;;;;1.70;1.60;;;18.90;99.90;;;;;;5026402;28;20488;-65
2021/10/29 02:56:15;;;;;;;1.70;1.60;;;18.80;99.90;;;;;;5024461;28;20472;-66
2021/10/29 02:58:46;;;;;;;1.67;1.57;;;18.80;99.90;;;;;;5032197;28;20457;-66
2021/10/29 03:01:17;;;;;;;3.27;1.53;;;18.70;99.90;;;;;;5029142;28;20480;-66
2021/10/29 03:03:48;;;;;;;1.37;1.27;;;18.70;99.90;;;;;;5030667;28;20570;-65
2021/10/29 03:06:19;;;;;;;1.70;1.33;;;18.70;99.90;;;;;;5038712;28;20809;-67
2021/10/29 03:08:51;;;;;;;1.50;1.40;;;18.70;99.90;;;;;;5039991;28;20511;-65
2021/10/29 03:11:22;;;;;;;1.60;1.47;;;18.70;99.90;;;;;;5039691;28;20459;-65
2021/10/29 03:13:53;;;;;;;3.43;1.40;;;18.70;99.90;;;;;;5039803;28;20468;-65
2021/10/29 03:16:24;;;;;;;1.17;1.07;;;18.70;99.90;;;;;;5039917;28;20435;-66
2021/10/29 03:18:55;;;;;;;1.20;1.20;;;18.80;99.90;;;;;;5042754;28;20548;-65
2021/10/29 03:21:25;;;;;;;1.47;1.37;;;18.70;99.90;;;;;;5029424;28;21026;-64
2021/10/29 03:23:58;;;;;;;1.37;1.20;;;18.70;99.90;;;;;;5039877;28;20462;-65
2021/10/29 03:26:29;;;;;;;1.77;1.50;;;18.70;99.90;;;;;;5029021;28;20511;-65
2021/10/29 03:28:59;;;;;;;1.80;1.50;;;18.60;99.90;;;;;;5023552;28;20572;-66
2021/10/29 03:31:30;;;;;;;2.20;1.83;;;18.70;99.90;;;;;;5025294;28;20439;-66
2021/10/29 03:34:01;;;;;;;1.47;1.37;;;18.60;99.90;;;;;;5035604;28;20461;-65
2021/10/29 03:36:32;;;;;;;2.20;1.47;;;18.60;99.90;;;;;;5030442;28;20835;-66
2021/10/29 03:39:06;;;;;;;1.27;1.13;;;18.60;99.90;;;;;;5034215;28;20438;-66
2021/10/29 03:41:41;;;;;;;1.47;1.20;;;18.60;99.90;;;;;;5046318;28;20437;-66
2021/10/29 03:44:20;;;;;;;1.23;1.10;;;18.60;99.90;;;;;;5028562;28;20464;-66
2021/10/29 03:46:54;;;;;;;1.90;1.17;;;18.60;99.90;;;;;;5024773;28;20457;-65
2021/10/29 03:49:30;;;;;;;1.57;1.47;;;18.60;99.90;;;;;;5029061;28;20489;-65
2021/10/29 03:52:07;;;;;;;1.30;1.20;;;18.50;99.90;;;;;;5027323;28;20571;-67
2021/10/29 03:54:40;;;;;;;1.83;1.47;;;18.50;99.90;;;;;;5028341;28;20473;-65
2021/10/29 03:57:23;;;;;;;1.67;1.47;;;18.60;99.90;;;;;;5035878;28;20434;-65
2021/10/29 03:59:55;;;;;;;1.37;1.27;;;18.60;99.90;;;;;;5043110;28;20497;-66
2021/10/29 04:02:26;;;;;;;1.10;1.10;;;18.50;99.90;;;;;;5033447;28;20492;-65
2021/10/29 04:04:57;;;;;;;1.30;1.20;;;18.60;99.90;;;;;;5031311;28;20592;-66
2021/10/29 04:07:28;;;;;;;1.90;1.57;;;18.60;99.90;;;;;;5030778;28;20479;-65
2021/10/29 04:10:01;;;;;;;1.37;1.27;;;18.60;99.90;;;;;;5028650;28;20465;-65
2021/10/29 04:12:31;;;;;;;1.73;1.23;;;18.60;99.90;;;;;;5026823;28;20539;-65
2021/10/29 04:15:03;;;;;;;1.93;1.40;;;18.60;99.90;;;;;;5035002;28;20488;-65
2021/10/29 04:17:34;;;;;;;1.10;1.00;;;18.60;99.90;;;;;;5033939;28;20477;-66
2021/10/29 04:20:06;;;;;;;3.80;1.73;;;18.60;99.90;;;;;;5028079;28;20750;-70
2021/10/29 04:22:37;;;;;;;1.30;1.30;;;18.50;99.90;;;;;;5035244;28;20549;-69
2021/10/29 04:25:10;;;;;;;1.90;1.60;;;18.60;99.90;;;;;;5023488;28;21094;-67
2021/10/29 04:27:48;;;;;;;2.07;1.70;;;18.50;99.90;;;;;;5022438;28;20461;-66
2021/10/29 04:30:21;;;;;;;2.07;1.50;;;18.60;99.90;;;;;;5023798;28;20541;-66
2021/10/29 04:32:52;;;;;;;1.37;1.20;;;18.60;99.90;;;;;;5024475;28;20465;-66
2021/10/29 04:35:23;;;;;;;3.07;1.33;;;18.60;99.90;;;;;;5027194;28;20769;-66
2021/10/29 04:37:54;;;;;;;1.60;1.50;;;18.60;99.90;;;;;;5038131;28;20548;-65
2021/10/29 04:40:29;;;;;;;1.43;1.30;;;18.60;99.90;;;;;;5036148;28;20475;-66
2021/10/29 04:43:00;;;;;;;1.40;1.30;;;18.60;99.90;;;;;;5028034;28;20467;-66
2021/10/29 04:45:31;;;;;;;1.67;1.57;;;18.60;99.90;;;;;;5033550;28;20898;-65
2021/10/29 04:48:03;;;;;;;1.37;1.27;;;18.60;99.90;;;;;;5023091;28;20565;-66
2021/10/29 04:50:34;;;;;;;1.23;1.13;;;18.60;99.90;;;;;;5024522;28;20473;-66
2021/10/29 04:53:10;;;;;;;1.57;1.37;;;18.60;99.90;;;;;;5016540;28;20847;-66
2021/10/29 04:55:46;;;;;;;4.30;1.50;;;18.50;99.90;;;;;;5010356;28;20924;-66
2021/10/29 04:58:17;;;;;;;1.93;0.90;;;18.60;99.90;;;;;;5007864;28;20460;-65
2021/10/29 05:00:50;;;;;;;2.60;1.70;;;18.60;99.90;;;;;;5017279;28;20593;-68
2021/10/29 05:03:22;;;;;;;1.50;1.40;;;18.60;99.90;;;;;;5016028;28;20484;-67
2021/10/29 05:05:57;;;;;;;1.20;1.10;;;18.60;99.90;;;;;;5020880;28;20583;-67
2021/10/29 05:08:30;;;;;;;1.30;1.20;;;18.60;99.90;;;;;;5014985;28;20587;-66
2021/10/29 05:11:02;;;;;;;1.40;1.30;;;18.50;99.90;;;;;;5012301;28;20433;-66
2021/10/29 05:13:38;;;;;;;3.13;1.30;;;18.50;99.90;;;;;;5018697;28;20516;-67
2021/10/29 05:16:09;;;;;;;1.77;1.40;;;18.50;99.90;;;;;;5014582;28;20484;-65
2021/10/29 05:18:40;;;;;;;1.57;1.10;;;18.50;99.90;;;;;;5021397;28;20429;-66
2021/10/29 05:21:11;;;;;;;1.27;1.17;;;18.60;99.90;;;;;;5024683;28;20465;-65
2021/10/29 05:23:42;;;;;;;1.77;1.60;;;18.50;99.90;;;;;;5019281;28;20467;-65
2021/10/29 05:26:14;;;;;;;2.10;1.43;;;18.50;99.90;;;;;;5016320;28;20461;-66
2021/10/29 05:28:45;;;;;;;1.50;1.23;;;18.50;99.90;;;;;;5022786;28;20484;-65
2021/10/29 05:31:16;;;;;;;1.37;1.27;;;18.50;99.90;;;;;;5029883;28;20483;-66
2021/10/29 05:33:47;;;;;;;1.27;1.13;;;18.50;99.90;;;;;;5019312;28;20805;-66
2021/10/29 05:36:18;;;;;;;1.43;1.20;;;18.50;99.90;;;;;;5017406;28;20440;-67
2021/10/29 05:38:48;;;;;;;1.23;1.13;;;18.50;99.90;;;;;;5012616;28;20466;-66
2021/10/29 05:41:21;;;;;;;1.93;1.20;;;18.50;99.90;;;;;;5023897;28;20922;-65
2021/10/29 05:43:52;;;;;;;1.37;1.20;;;18.50;99.90;;;;;;5020188;28;20995;-65
2021/10/29 05:46:27;;;;;;;1.40;1.30;;;18.50;99.90;;;;;;5029748;28;21017;-65
2021/10/29 05:48:58;;;;;;;1.20;1.10;;;18.50;99.90;;;;;;5006309;28;20983;-65
2021/10/29 05:51:31;;;;;;;0.70;0.70;;;18.40;99.90;;;;;;5019659;28;20461;-65
2021/10/29 05:54:12;;;;;;;1.43;1.03;;;18.30;99.90;;;;;;4996610;28;20453;-66
2021/10/29 05:56:44;;;;;;;0.90;0.90;;;18.40;99.90;;;;;;5012040;28;20470;-66
2021/10/29 05:59:15;;;;;;;1.83;1.53;;;18.40;99.90;;;;;;5020665;28;20436;-66
2021/10/29 06:01:46;;;;;;;0.80;0.70;;;18.40;99.90;;;;;;5017238;28;20451;-66
2021/10/29 06:04:17;;;;;;;1.63;1.00;;;18.30;99.90;;;;;;5016641;28;20645;-65
2021/10/29 06:06:48;;;;;;;1.27;0.80;;;18.30;99.90;;;;;;5002591;28;20462;-66
2021/10/29 06:09:19;;;;;;;1.47;1.37;;;18.30;99.90;;;;;;5021684;28;20486;-67
2021/10/29 06:11:52;;;;;;;0.90;0.80;;;18.30;99.90;;;;;;5016177;28;20836;-66
2021/10/29 06:14:23;;;;;;;0.80;0.80;;;18.40;99.90;;;;;;5024428;28;20432;-65
2021/10/29 06:16:56;;;;;;;1.43;1.03;;;18.40;99.90;;;;;;5023161;28;20480;-66
2021/10/29 06:19:28;;;;;;;1.50;1.20;;;18.30;99.90;;;;;;5020903;28;20476;-66
2021/10/29 06:22:02;;;;;;;1.27;1.17;;;18.30;99.90;;;;;;5017959;28;20457;-66
2021/10/29 06:24:34;;;;;;;0.87;0.87;;;18.10;99.90;;;;;;5020525;28;20505;-66
2021/10/29 06:27:11;;;;;;;6.43;1.20;;;18.00;99.90;;;;;;5020155;28;20471;-66
2021/10/29 06:29:42;;;;;;;3.67;0.90;;;17.80;99.90;;;;;;5018650;28;20573;-66
2021/10/29 06:32:13;;;;;;;1.50;1.23;;;17.70;99.90;;;;;;5022959;28;20460;-66
2021/10/29 06:34:44;;;;;;;1.53;1.30;;;17.60;99.90;;;;;;5017318;28;20932;-66
2021/10/29 06:37:16;;;;;;;1.90;1.30;;;17.50;99.90;;;;;;5023930;28;20468;-67
2021/10/29 06:39:48;;;;;;;1.27;1.17;;;17.50;99.90;;;;;;5020415;28;20437;-68
2021/10/29 06:42:28;;;;;;;2.20;1.60;;;17.50;99.90;;;;;;5006226;28;20461;-67
2021/10/29 06:45:11;;;;;;;3.03;1.50;;;17.40;99.90;;;;;;5014895;28;20979;-68
2021/10/29 06:47:49;;;;;;;1.50;1.40;;;17.40;99.90;;;;;;5017465;28;21047;-67
2021/10/29 07:01:45;;;;;;;2.60;2.10;;;17.20;99.90;;;;;;5004094;28;20466;-67
2021/10/29 07:04:34;;;;;;;1.80;1.70;;;17.20;99.90;;;;;;5010895;28;20607;-67
2021/10/29 07:40:42;;;;;;;0.70;0.53;;;16.60;99.90;;;;;;5007325;28;20470;-66
2021/10/29 07:43:15;;;;;;;0.70;0.70;;;16.60;99.90;;;;;;5022794;28;20461;-66
2021/10/29 07:45:46;;;;;;;0.80;0.50;;;16.60;99.90;;;;;;5025822;28;20473;-67
2021/10/29 07:48:18;;;;;;;0.97;0.40;;;16.50;99.90;;;;;;5009842;28;20458;-67
2021/10/29 07:53:49;;;;;;;0.70;0.33;;;16.50;99.90;;;;;;5261959;23;20928;-67
2021/10/29 07:56:20;;;;;;;0.60;0.60;;;16.50;99.90;;;;;;4892122;29;20456;-72
2021/10/29 07:59:03;;;;;;;0.50;0.50;;;16.40;99.90;;;;;;4893075;29;20517;-68
2021/10/29 08:01:34;;;;;;;0.80;0.50;;;16.40;99.90;;;;;;4900721;29;20450;-68
2021/10/29 08:04:09;;;;;;;0.60;0.50;;;16.40;99.90;;;;;;4901381;29;20523;-72
2021/10/29 08:06:41;;;;;;;0.50;0.50;;;16.40;99.90;;;;;;4895247;29;20455;-71
2021/10/29 08:09:12;;;;;;;0.80;0.50;;;16.40;99.90;;;;;;4902265;29;20476;-68
2021/10/29 08:11:43;;;;;;;1.10;0.60;;;16.50;99.90;;;;;;4894752;29;20949;-68
2021/10/29 08:14:14;;;;;;;1.50;0.60;;;16.50;99.90;;;;;;4912234;29;20454;-68
2021/10/29 08:16:45;;;;;;;0.50;0.40;;;16.50;99.90;;;;;;4911660;29;20465;-70
2021/10/29 08:19:20;;;;;;;0.63;0.63;;;16.40;99.90;;;;;;4902571;29;20455;-67
2021/10/29 08:21:50;;;;;;;0.70;0.60;;;16.40;99.90;;;;;;4900485;29;20809;-70
2021/10/29 08:24:22;;;;;;;2.30;0.60;;;16.50;99.90;;;;;;4897601;29;20927;-67
2021/10/29 08:26:53;;;;;;;0.70;0.70;;;16.50;99.90;;;;;;4899905;29;20459;-69
2021/10/29 08:29:24;;;;;;;0.70;0.70;;;16.50;99.90;;;;;;4892307;29;20502;-68
2021/10/29 08:31:55;;;;;;;0.63;0.40;;;16.50;99.90;;;;;;4910224;29;20934;-68
2021/10/29 08:34:28;;;;;;;0.80;0.80;;;16.40;99.90;;;;;;4899377;29;20541;-69
2021/10/29 08:37:00;;;;;;;1.13;1.00;;;16.20;99.90;;;;;;4895442;29;20451;-68
2021/10/29 08:39:32;;;;;;;1.37;0.60;;;15.80;99.90;;;;;;4894193;29;20462;-68
2021/10/29 08:42:03;;;;;;;0.57;0.57;;;15.50;99.90;;;;;;4904265;29;20466;-69
2021/10/29 08:44:35;;;;;;;1.73;0.70;;;15.30;99.90;;;;;;4911263;29;20804;-69
2021/10/29 08:47:06;;;;;;;1.10;1.00;;;15.10;99.90;;;;;;4895945;29;20528;-75
2021/10/29 08:49:39;;;;;;;1.00;0.70;;;14.90;99.90;;;;;;4896139;29;20466;-68
2021/10/29 08:52:10;;;;;;;0.80;0.80;;;14.80;99.90;;;;;;4914527;29;20840;-71
2021/10/29 08:54:41;;;;;;;1.53;0.80;;;14.60;99.90;;;;;;4910920;29;20451;-68
2021/10/29 08:57:12;;;;;;;1.10;1.00;;;14.60;99.90;;;;;;4897580;29;20467;-70
2021/10/29 08:59:43;;;;;;;0.73;0.73;;;14.60;99.90;;;;;;4901953;29;20451;-68
2021/10/29 09:02:16;;;;;;;1.57;1.00;;;14.50;99.90;;;;;;4908683;29;20454;-68
2021/10/29 09:04:55;;;;;;;0.50;0.50;;;14.50;99.90;;;;;;4915320;29;20454;-68
2021/10/29 09:32:58;;;;;;;1.20;0.80;;;14.00;99.90;;;;;;4897064;29;20947;-68
2021/10/29 09:35:30;;;;;;;0.93;0.90;;;14.00;99.90;;;;;;4907000;29;20548;-68
2021/10/29 09:38:05;;;;;;;1.37;1.27;;;14.00;99.90;;;;;;4906053;29;20458;-68
2021/10/29 09:40:37;;;;;;;1.30;1.20;;;13.90;99.90;;;;;;4907698;29;20458;-68
2021/10/29 09:43:14;;;;;;;2.53;1.07;;;13.90;99.90;;;;;;4911380;29;20458;-68
2021/10/29 09:45:48;;;;;;;1.20;1.10;;;13.90;99.90;;;;;;4914723;29;20473;-71
2021/10/29 09:48:21;;;;;;;1.30;1.20;;;13.90;99.90;;;;;;4911115;29;20574;-67
2021/10/29 09:50:55;;;;;;;0.83;0.83;;;13.80;99.90;;;;;;4901511;29;20964;-71
2021/10/29 09:56:22;;;;;;;1.50;1.40;;;13.90;99.90;;;;;;4899590;29;20522;-71
2021/10/29 09:58:54;;;;;;;2.10;1.87;;;13.90;99.90;;;;;;4911200;29;20490;-70
2021/10/29 10:01:27;;;;;;;1.43;1.20;;;13.90;99.90;;;;;;4906999;29;20495;-72
2021/10/29 10:04:01;;;;;;;0.67;0.67;;;13.80;99.90;;;;;;4901117;29;20467;-67
2021/10/29 10:06:34;;;;;;;0.60;0.60;;;13.70;99.90;;;;;;4912071;29;20470;-70
2021/10/29 10:09:08;;;;;;;0.60;0.50;;;13.60;99.90;;;;;;4900978;29;20464;-68
2021/10/29 10:11:41;;;;;;;0.40;0.37;;;13.50;99.90;;;;;;4908553;29;20498;-67
2021/10/29 10:14:13;;;;;;;0.30;0.30;;;13.40;99.90;;;;;;4906316;29;20486;-69
2021/10/29 10:16:47;;;;;;;0.30;0.30;;;13.40;99.90;;;;;;4909553;29;20553;-67
2021/10/29 10:19:17;;;;;;;0.50;0.30;;;13.40;99.90;;;;;;4902448;29;20459;-68
2021/10/29 10:21:53;;;;;;;0.40;0.40;;;13.40;99.90;;;;;;4899770;29;20543;-68
2021/10/29 10:24:30;;;;;;;0.60;0.60;;;13.30;99.90;;;;;;4897293;29;20827;-67
2021/10/29 10:27:28;;;;;;;0.40;0.30;;;13.30;99.90;;;;;;4904753;29;20537;-67
2021/10/29 10:30:18;;;;;;;0.90;0.63;;;13.20;99.90;;;;;;4905343;29;21015;-67
2021/10/29 10:44:58;;;;;;;1.07;0.93;;;12.80;99.90;;;;;;5165293;27;21081;-69
2021/10/29 10:47:36;;;;;;;0.60;0.60;;;12.80;99.90;;;;;;5156372;27;20958;-68
2021/10/29 10:50:15;;;;;;;1.03;0.80;;;12.70;99.90;;;;;;5152073;27;20933;-66
2021/10/29 10:53:20;;;;;;;0.60;0.60;;;12.70;99.90;;;;;;5165710;27;20458;-68
2021/10/29 10:56:03;;;;;;;1.20;0.90;;;12.60;99.90;;;;;;5164873;27;20954;-70
2021/10/29 10:58:56;;;;;;;0.80;0.67;;;12.50;99.90;;;;;;5163559;27;20975;-68
2021/10/29 11:10:36;;;;;;;1.47;0.90;;;12.40;99.90;;;;;;5165725;27;20526;-66
2021/10/29 11:13:12;;;;;;;0.80;0.80;;;12.30;99.90;;;;;;5156218;27;20491;-68
2021/10/29 11:15:42;;;;;;;1.43;0.93;;;12.30;99.90;;;;;;5153822;27;20486;-66
2021/10/29 11:18:33;;;;;;;1.43;0.80;;;12.20;99.90;;;;;;5150476;27;20463;-67
2021/10/29 11:21:23;;;;;;;1.00;0.90;;;12.20;99.90;;;;;;5154924;27;20447;-68
2021/10/29 11:23:58;;;;;;;1.30;1.20;;;12.10;99.90;;;;;;5162609;27;20471;-66
2021/10/29 11:26:32;;;;;;;1.40;0.90;;;12.10;99.90;;;;;;5151077;27;20453;-68
2021/10/29 11:29:04;;;;;;;0.60;0.60;;;12.10;99.90;;;;;;5165845;27;20459;-66
2021/10/29 11:31:42;;;;;;;0.80;0.73;;;12.10;99.90;;;;;;5163686;27;20562;-66
2021/10/29 11:34:17;;;;;;;0.83;0.83;;;12.20;99.90;;;;;;5163948;27;20447;-68
2021/10/29 11:36:51;;;;;;;1.13;0.60;;;12.20;99.90;;;;;;5160197;27;20454;-68
2021/10/29 11:39:23;;;;;;;0.80;0.80;;;12.10;99.90;;;;;;5162759;27;20455;-69
2021/10/29 11:41:54;;;;;;;1.20;1.10;;;12.20;99.90;;;;;;5162163;27;20576;-66
2021/10/29 11:44:26;;;;;;;0.70;0.60;;;12.20;99.90;;;;;;5165889;27;20490;-65
2021/10/29 11:46:58;;;;;;;1.00;0.97;;;12.20;99.90;;;;;;5155688;27;20462;-69
2021/10/29 11:49:31;;;;;;;0.70;0.70;;;12.20;99.90;;;;;;5151746;27;20835;-70
2021/10/29 11:52:05;;;;;;;3.03;0.70;;;12.20;99.90;;;;;;5156058;27;20504;-66
2021/10/29 11:54:37;;;;;;;0.73;0.53;;;12.20;99.90;;;;;;5158915;27;20463;-71
2021/10/29 12:05:55;;;;;;;1.00;0.80;;;12.10;99.90;;;;;;5148521;27;20460;-72
2021/10/29 12:08:28;;;;;;;2.43;0.60;;;12.10;99.90;;;;;;5143883;27;20478;-66
2021/10/29 12:11:03;;;;;;;0.90;0.60;;;12.10;99.90;;;;;;5142908;27;20466;-66
2021/10/29 12:13:37;;;;;;;2.20;0.70;;;12.10;99.90;;;;;;5141411;27;20455;-65
2021/10/29 12:16:25;;;;;;;1.10;0.90;;;12.20;99.90;;;;;;5147139;27;20527;-65
2021/10/29 12:19:00;;;;;;;0.70;0.70;;;12.20;99.90;;;;;;5147481;27;20467;-65
2021/10/29 12:21:39;;;;;;;1.43;1.10;;;12.20;99.90;;;;;;5149349;27;20478;-68
2021/10/29 12:24:14;;;;;;;0.80;0.77;;;12.10;99.90;;;;;;5147522;27;20479;-71
2021/10/29 12:26:44;;;;;;;0.93;0.83;;;12.10;99.90;;;;;;5152469;27;20799;-68
2021/10/29 12:29:17;;;;;;;0.63;0.60;;;12.10;99.90;;;;;;5144331;27;20460;-67
2021/10/29 12:52:03;;;;;;;1.00;0.70;;;12.20;99.90;;;;;;5148439;27;20936;-66
2021/10/29 12:58:48;;;;;;;1.17;0.77;;;12.10;99.90;;;;;;5143306;27;20448;-65
2021/10/29 13:03:23;;;;;;;0.57;0.53;;;11.80;99.90;;;;;;5148867;27;20538;-73
2021/10/29 13:05:57;;;;;;;0.63;0.50;;;11.70;99.90;;;;;;5149906;27;20885;-68
2021/10/29 13:08:29;;;;;;;0.77;0.77;;;11.70;99.90;;;;;;5143798;27;20470;-72
2021/10/29 13:11:01;;;;;;;0.70;0.60;;;11.60;99.90;;;;;;5148471;27;20460;-72
2021/10/29 13:13:36;;;;;;;0.80;0.70;;;11.50;99.90;;;;;;5149949;27;20451;-65
2021/10/29 13:16:10;;;;;;;0.80;0.50;;;11.40;99.90;;;;;;5150268;27;20456;-70
2021/10/29 13:18:50;;;;;;;0.57;0.50;;;11.40;99.90;;;;;;5140667;27;20956;-65
2021/10/29 13:27:23;;;;;;;1.00;0.83;;;11.40;99.90;;;;;;5150234;27;20485;-68
2021/10/29 13:52:42;;;;;;;0.80;0.80;;;11.10;99.90;;;;;;5145615;27;20467;-66
2021/10/29 13:55:33;;;;;;;0.80;0.80;;;11.10;99.90;;;;;;5148701;27;20841;-68
2021/10/29 14:29:33;;;;;;;1.50;1.40;;;11.20;99.90;;;;;;5143702;27;21032;-66
2021/10/29 14:32:12;;;;;;;0.97;0.97;;;11.20;99.90;;;;;;5145922;27;20542;-70
2021/10/29 14:34:47;;;;;;;1.17;1.10;;;11.20;99.90;;;;;;5144669;27;20925;-69
2021/10/29 14:37:21;;;;;;;1.77;0.90;;;11.10;99.90;;;;;;5144402;27;20470;-66
2021/10/29 14:39:58;;;;;;;1.00;0.90;;;11.20;99.90;;;;;;5144808;27;20960;-69
2021/10/29 14:42:33;;;;;;;1.17;1.10;;;11.30;99.90;;;;;;5145402;27;20453;-66
2021/10/29 14:45:08;;;;;;;1.27;1.17;;;11.30;99.90;;;;;;5145206;27;20451;-67
2021/10/29 14:47:48;;;;;;;1.50;1.37;;;11.20;99.90;;;;;;5144001;27;20987;-67
2021/10/29 14:50:46;;;;;;;0.93;0.93;;;11.20;99.90;;;;;;5142835;27;20531;-66
2021/10/29 15:04:59;;;;;;;70.80;14.77;;;11.30;99.90;;;;;;5145615;27;20455;-68
2021/10/29 15:16:28;;;;;;;6.73;2.93;;;11.40;99.90;;;;;;5138070;27;20500;-64
2021/10/29 15:27:30;;;;;;;1.40;1.30;;;11.40;99.90;;;;;;5126860;27;20971;-69
2021/10/29 15:30:05;;;;;;;1.50;1.37;;;11.30;99.90;;;;;;5120455;27;20472;-68
2021/10/29 15:32:53;;;;;;;1.60;1.50;;;11.40;99.90;;;;;;5126920;27;20467;-70
2021/10/29 15:41:14;;;;;;;1.27;1.23;;;11.30;99.90;;;;;;5128573;27;20463;-73
2021/10/29 15:43:54;;;;;;;2.23;1.37;;;11.30;99.90;;;;;;5130727;27;20509;-73
2021/10/29 15:46:36;;;;;;;1.50;1.27;;;11.40;99.90;;;;;;5123432;27;20492;-69
2021/10/29 15:49:18;;;;;;;1.57;1.47;;;11.40;99.90;;;;;;5128240;27;20448;-70
2021/10/29 15:51:52;;;;;;;2.50;0.97;;;11.50;99.90;;;;;;5129458;27;20459;-70
2021/10/29 15:54:23;;;;;;;3.60;1.13;;;11.50;99.90;;;;;;5126833;27;20452;-71
2021/10/29 15:56:56;;;;;;;2.63;1.60;;;11.60;99.90;;;;;;5126351;27;20543;-73
2021/10/29 15:59:35;;;;;;;1.17;0.90;;;11.70;99.90;;;;;;5128760;27;20563;-72
2021/10/29 16:02:25;;;;;;;1.00;1.00;;;11.60;99.90;;;;;;5130909;27;20471;-71
2021/10/29 16:19:06;;;;;;;2.63;1.60;;;11.90;99.90;;;;;;5125292;27;20839;-69
2021/10/29 16:21:38;;;;;;;1.40;1.30;;;12.00;99.90;;;;;;5127587;27;20449;-72
2021/10/29 16:24:09;;;;;;;1.17;1.13;;;12.10;99.90;;;;;;5123706;27;20495;-77
2021/10/29 16:26:40;;;;;;;1.87;1.70;;;12.00;99.90;;;;;;5127169;27;20579;-72
2021/10/29 16:29:18;;;;;;;1.70;1.20;;;11.90;99.90;;;;;;5115822;27;20452;-74
2021/10/29 16:31:54;;;;;;;1.57;1.43;;;11.90;99.90;;;;;;5130839;27;20535;-71
2021/10/29 16:34:27;;;;;;;2.00;1.70;;;11.90;99.90;;;;;;5119357;27;20539;-72
2021/10/29 16:36:58;;;;;;;1.87;1.43;;;11.80;99.90;;;;;;5129424;27;20512;-73
2021/10/29 16:39:29;;;;;;;1.50;1.40;;;11.70;99.90;;;;;;5127714;27;20453;-70
2021/10/29 16:42:00;;;;;;;1.80;1.50;;;11.80;99.90;;;;;;5127320;27;20631;-71
2021/10/29 16:44:31;;;;;;;1.80;1.40;;;11.90;99.90;;;;;;5129544;27;20540;-71
2021/10/29 16:47:02;;;;;;;1.77;1.67;;;11.90;99.90;;;;;;5128024;27;20864;-70
2021/10/29 16:49:34;;;;;;;1.80;1.40;;;11.90;99.90;;;;;;5127746;27;20456;-69
2021/10/29 16:52:29;;;;;;;1.50;1.37;;;12.00;99.90;;;;;;5125473;27;20498;-72
2021/10/29 16:55:03;;;;;;;1.80;1.70;;;11.90;99.90;;;;;;5118310;27;20452;-71
2021/10/29 16:57:40;;;;;;;8.30;2.80;;;11.80;99.90;;;;;;5129012;27;20445;-71
2021/10/29 17:00:13;;;;;;;1.83;1.60;;;11.90;99.90;;;;;;5123742;27;20457;-69
2021/10/29 17:02:44;;;;;;;1.70;1.50;;;12.10;99.90;;;;;;5124683;27;20573;-73
2021/10/29 17:05:17;;;;;;;2.70;2.40;;;12.00;99.90;;;;;;5124491;27;20477;-77
2021/10/29 17:07:48;;;;;;;2.97;2.13;;;12.00;99.90;;;;;;5125232;27;20577;-70
2021/10/29 17:10:20;;;;;;;4.53;2.43;;;12.20;99.90;;;;;;5131345;27;20934;-71
2021/10/29 17:12:52;;;;;;;3.27;2.60;;;12.10;99.90;;;;;;5128731;27;20532;-73
2021/10/29 17:15:23;;;;;;;3.17;2.30;;;12.00;99.90;;;;;;5129302;27;21062;-70
2021/10/29 17:17:56;;;;;;;4.40;2.57;;;12.10;99.90;;;;;;5128119;27;20448;-71
2021/10/29 17:20:34;;;;;;;3.00;2.70;;;12.20;99.90;;;;;;5113867;27;20814;-71
2021/10/29 17:23:05;;;;;;;2.50;2.17;;;12.40;99.90;;;;;;5128369;27;20555;-68